KLVN

Airlake Airport

Minneapolis, Minnesota, USA
METAR KLVN 170155Z AUTO 04003KT 10SM M06/M07 A3007 RMK AO2
Observed Flight Rules
Dec-17 @ 01:55 UTC (28 minutes ago)
Wind Visibility
40° at 3 knots 10 miles
Temperatures Readings
Current -6°C / 21°F
Dewpoint -7°C / 19°F
Humidity 93%
Altimeter 30.07" Hg
Pressure 1018 hPa
Elevation 293
METAR KLVN 170155Z AUTO 04003KT 10SM M06/M07 A3007 RMK AO2
Observed Flight Rules
Dec-17 @ 01:55 UTC
(28 minutes ago)
Wind Visibility
40° at 3 knots 10 miles
Temperature Dewpoint
-6°C / 21°F -7°C / 19°F
Humidity Altimeter Pressure
93% 30.07" Hg 1018 hPa